sensor_id;sensor_type;location;lat;lon;timestamp;P1;durP1;ratioP1;P2;durP2;ratioP2
11111;SDS011;5609;49.466;8.468;2022-12-18T00:01:51;49.87;;;25.20;;
11111;SDS011;5609;49.466;8.468;2022-12-18T00:04:19;49.60;;;26.97;;
11111;SDS011;5609;49.466;8.468;2022-12-18T00:06:49;48.27;;;27.07;;
11111;SDS011;5609;49.466;8.468;2022-12-18T00:09:16;40.70;;;23.37;;
11111;SDS011;5609;49.466;8.468;2022-12-18T00:11:43;44.17;;;25.07;;
11111;SDS011;5609;49.466;8.468;2022-12-18T00:14:11;41.90;;;24.13;;
11111;SDS011;5609;49.466;8.468;2022-12-18T00:16:38;38.87;;;23.50;;
11111;SDS011;5609;49.466;8.468;2022-12-18T00:19:06;37.57;;;22.30;;
11111;SDS011;5609;49.466;8.468;2022-12-18T00:21:33;42.60;;;24.17;;
11111;SDS011;5609;49.466;8.468;2022-12-18T00:24:01;46.63;;;25.83;;
11111;SDS011;5609;49.466;8.468;2022-12-18T00:26:28;43.60;;;23.80;;
11111;SDS011;5609;49.466;8.468;2022-12-18T00:28:58;43.40;;;24.40;;
11111;SDS011;5609;49.466;8.468;2022-12-18T00:31:25;41.70;;;22.47;;
11111;SDS011;5609;49.466;8.468;2022-12-18T00:33:53;40.87;;;23.83;;
11111;SDS011;5609;49.466;8.468;2022-12-18T00:36:21;41.97;;;24.27;;
11111;SDS011;5609;49.466;8.468;2022-12-18T00:38:48;49.93;;;24.53;;
11111;SDS011;5609;49.466;8.468;2022-12-18T00:41:17;37.20;;;23.47;;
11111;SDS011;5609;49.466;8.468;2022-12-18T00:43:58;34.40;;;21.70;;
11111;SDS011;5609;49.466;8.468;2022-12-18T00:46:25;34.90;;;22.47;;
11111;SDS011;5609;49.466;8.468;2022-12-18T00:48:52;43.80;;;24.80;;
11111;SDS011;5609;49.466;8.468;2022-12-18T00:51:19;40.93;;;23.20;;
11111;SDS011;5609;49.466;8.468;2022-12-18T00:53:46;41.93;;;25.30;;
11111;SDS011;5609;49.466;8.468;2022-12-18T00:56:13;44.47;;;24.93;;
11111;SDS011;5609;49.466;8.468;2022-12-18T00:58:42;64.27;;;25.53;;
11111;SDS011;5609;49.466;8.468;2022-12-18T01:01:09;38.97;;;23.10;;
11111;SDS011;5609;49.466;8.468;2022-12-18T01:03:36;42.00;;;23.33;;
11111;SDS011;5609;49.466;8.468;2022-12-18T01:06:05;48.27;;;25.07;;
11111;SDS011;5609;49.466;8.468;2022-12-18T01:08:32;38.43;;;23.40;;
11111;SDS011;5609;49.466;8.468;2022-12-18T01:10:59;35.00;;;22.00;;
11111;SDS011;5609;49.466;8.468;2022-12-18T01:13:25;34.23;;;21.27;;
11111;SDS011;5609;49.466;8.468;2022-12-18T01:15:54;40.63;;;22.43;;
11111;SDS011;5609;49.466;8.468;2022-12-18T01:18:20;40.67;;;23.23;;
11111;SDS011;5609;49.466;8.468;2022-12-18T01:20:47;37.60;;;21.53;;
11111;SDS011;5609;49.466;8.468;2022-12-18T01:23:15;36.37;;;22.80;;
11111;SDS011;5609;49.466;8.468;2022-12-18T01:25:42;33.00;;;21.90;;
11111;SDS011;5609;49.466;8.468;2022-12-18T01:28:09;32.30;;;20.60;;
11111;SDS011;5609;49.466;8.468;2022-12-18T01:30:36;33.83;;;20.77;;
11111;SDS011;5609;49.466;8.468;2022-12-18T01:33:05;35.80;;;22.80;;
11111;SDS011;5609;49.466;8.468;2022-12-18T01:35:32;35.90;;;22.60;;
11111;SDS011;5609;49.466;8.468;2022-12-18T01:38:02;30.80;;;20.20;;
11111;SDS011;5609;49.466;8.468;2022-12-18T01:40:29;35.97;;;22.93;;
11111;SDS011;5609;49.466;8.468;2022-12-18T01:42:56;35.60;;;22.53;;
11111;SDS011;5609;49.466;8.468;2022-12-18T01:45:26;35.37;;;21.90;;
11111;SDS011;5609;49.466;8.468;2022-12-18T01:47:55;41.20;;;22.70;;
11111;SDS011;5609;49.466;8.468;2022-12-18T01:50:27;34.87;;;22.90;;
11111;SDS011;5609;49.466;8.468;2022-12-18T01:52:58;39.80;;;22.43;;
11111;SDS011;5609;49.466;8.468;2022-12-18T01:55:28;37.43;;;22.33;;
11111;SDS011;5609;49.466;8.468;2022-12-18T01:57:58;38.67;;;22.47;;
11111;SDS011;5609;49.466;8.468;2022-12-18T02:00:26;37.30;;;22.97;;
11111;SDS011;5609;49.466;8.468;2022-12-18T02:02:54;38.03;;;22.20;;
11111;SDS011;5609;49.466;8.468;2022-12-18T02:05:22;41.07;;;23.77;;
11111;SDS011;5609;49.466;8.468;2022-12-18T02:07:59;39.03;;;25.17;;
11111;SDS011;5609;49.466;8.468;2022-12-18T02:10:35;41.37;;;24.10;;
11111;SDS011;5609;49.466;8.468;2022-12-18T02:13:10;40.57;;;26.03;;
11111;SDS011;5609;49.466;8.468;2022-12-18T02:15:41;41.20;;;24.50;;
11111;SDS011;5609;49.466;8.468;2022-12-18T02:18:14;39.80;;;24.43;;
11111;SDS011;5609;49.466;8.468;2022-12-18T02:20:47;40.33;;;23.97;;
11111;SDS011;5609;49.466;8.468;2022-12-18T02:23:24;49.03;;;25.50;;
11111;SDS011;5609;49.466;8.468;2022-12-18T02:26:08;44.83;;;26.30;;
11111;SDS011;5609;49.466;8.468;2022-12-18T02:28:49;41.23;;;24.87;;
11111;SDS011;5609;49.466;8.468;2022-12-18T02:31:24;45.43;;;24.90;;
11111;SDS011;5609;49.466;8.468;2022-12-18T02:34:01;45.00;;;26.83;;
11111;SDS011;5609;49.466;8.468;2022-12-18T02:36:30;42.83;;;24.20;;
11111;SDS011;5609;49.466;8.468;2022-12-18T02:38:59;35.97;;;22.30;;
11111;SDS011;5609;49.466;8.468;2022-12-18T02:41:30;41.43;;;23.67;;
11111;SDS011;5609;49.466;8.468;2022-12-18T02:43:58;39.27;;;24.63;;
11111;SDS011;5609;49.466;8.468;2022-12-18T02:46:30;39.23;;;24.20;;
11111;SDS011;5609;49.466;8.468;2022-12-18T02:49:01;37.50;;;23.53;;
11111;SDS011;5609;49.466;8.468;2022-12-18T02:51:37;41.97;;;25.37;;
11111;SDS011;5609;49.466;8.468;2022-12-18T02:54:07;55.20;;;27.77;;
11111;SDS011;5609;49.466;8.468;2022-12-18T02:56:38;41.10;;;23.97;;
11111;SDS011;5609;49.466;8.468;2022-12-18T02:59:08;36.33;;;22.70;;
11111;SDS011;5609;49.466;8.468;2022-12-18T03:01:38;39.90;;;23.20;;
11111;SDS011;5609;49.466;8.468;2022-12-18T03:04:09;36.63;;;22.03;;
11111;SDS011;5609;49.466;8.468;2022-12-18T03:06:39;35.97;;;22.10;;
11111;SDS011;5609;49.466;8.468;2022-12-18T03:09:09;39.90;;;22.33;;
11111;SDS011;5609;49.466;8.468;2022-12-18T03:11:37;34.37;;;22.53;;
11111;SDS011;5609;49.466;8.468;2022-12-18T03:14:25;32.17;;;19.93;;
11111;SDS011;5609;49.466;8.468;2022-12-18T03:16:54;35.43;;;23.30;;
11111;SDS011;5609;49.466;8.468;2022-12-18T03:19:22;34.13;;;20.73;;
11111;SDS011;5609;49.466;8.468;2022-12-18T03:21:51;40.40;;;24.30;;
11111;SDS011;5609;49.466;8.468;2022-12-18T03:24:18;36.57;;;22.70;;
11111;SDS011;5609;49.466;8.468;2022-12-18T03:26:47;38.40;;;23.93;;
11111;SDS011;5609;49.466;8.468;2022-12-18T03:29:16;37.40;;;24.13;;
11111;SDS011;5609;49.466;8.468;2022-12-18T03:31:47;39.43;;;24.70;;
11111;SDS011;5609;49.466;8.468;2022-12-18T03:34:17;41.20;;;22.97;;
11111;SDS011;5609;49.466;8.468;2022-12-18T03:36:47;41.80;;;25.70;;
11111;SDS011;5609;49.466;8.468;2022-12-18T03:39:14;39.27;;;23.57;;
11111;SDS011;5609;49.466;8.468;2022-12-18T03:41:43;52.20;;;24.97;;
11111;SDS011;5609;49.466;8.468;2022-12-18T03:44:11;42.20;;;24.83;;
11111;SDS011;5609;49.466;8.468;2022-12-18T03:46:41;39.93;;;24.87;;
11111;SDS011;5609;49.466;8.468;2022-12-18T03:49:14;35.43;;;21.73;;
11111;SDS011;5609;49.466;8.468;2022-12-18T03:51:47;42.83;;;23.53;;
11111;SDS011;5609;49.466;8.468;2022-12-18T03:54:15;43.73;;;24.67;;
11111;SDS011;5609;49.466;8.468;2022-12-18T03:56:45;33.13;;;21.63;;
11111;SDS011;5609;49.466;8.468;2022-12-18T03:59:13;39.60;;;24.10;;
11111;SDS011;5609;49.466;8.468;2022-12-18T04:01:42;37.70;;;23.20;;
11111;SDS011;5609;49.466;8.468;2022-12-18T04:04:12;38.27;;;23.23;;
11111;SDS011;5609;49.466;8.468;2022-12-18T04:06:41;40.23;;;24.13;;
11111;SDS011;5609;49.466;8.468;2022-12-18T04:09:08;37.30;;;22.73;;
11111;SDS011;5609;49.466;8.468;2022-12-18T04:11:35;38.27;;;23.27;;
11111;SDS011;5609;49.466;8.468;2022-12-18T04:14:02;36.43;;;22.37;;
11111;SDS011;5609;49.466;8.468;2022-12-18T04:16:29;35.00;;;21.63;;
11111;SDS011;5609;49.466;8.468;2022-12-18T04:18:56;34.30;;;20.43;;
11111;SDS011;5609;49.466;8.468;2022-12-18T04:21:24;36.10;;;22.77;;
11111;SDS011;5609;49.466;8.468;2022-12-18T04:23:52;32.03;;;21.37;;
11111;SDS011;5609;49.466;8.468;2022-12-18T04:26:19;34.00;;;21.60;;
11111;SDS011;5609;49.466;8.468;2022-12-18T04:28:46;31.77;;;20.00;;
11111;SDS011;5609;49.466;8.468;2022-12-18T04:31:13;31.40;;;20.47;;
11111;SDS011;5609;49.466;8.468;2022-12-18T04:33:40;31.00;;;20.37;;
11111;SDS011;5609;49.466;8.468;2022-12-18T04:36:07;32.57;;;21.90;;
11111;SDS011;5609;49.466;8.468;2022-12-18T04:38:34;29.83;;;18.93;;
11111;SDS011;5609;49.466;8.468;2022-12-18T04:41:03;32.80;;;19.80;;
11111;SDS011;5609;49.466;8.468;2022-12-18T04:43:30;32.97;;;20.67;;
11111;SDS011;5609;49.466;8.468;2022-12-18T04:46:01;31.57;;;20.50;;
11111;SDS011;5609;49.466;8.468;2022-12-18T04:48:28;31.13;;;21.03;;
11111;SDS011;5609;49.466;8.468;2022-12-18T04:50:55;29.87;;;19.03;;
11111;SDS011;5609;49.466;8.468;2022-12-18T04:53:22;30.63;;;19.27;;
11111;SDS011;5609;49.466;8.468;2022-12-18T04:55:49;30.57;;;19.53;;
11111;SDS011;5609;49.466;8.468;2022-12-18T04:58:17;29.57;;;20.07;;
11111;SDS011;5609;49.466;8.468;2022-12-18T05:00:44;31.80;;;20.33;;
11111;SDS011;5609;49.466;8.468;2022-12-18T05:03:12;32.67;;;20.90;;
11111;SDS011;5609;49.466;8.468;2022-12-18T05:05:39;32.40;;;19.50;;
11111;SDS011;5609;49.466;8.468;2022-12-18T05:08:06;31.50;;;20.90;;
11111;SDS011;5609;49.466;8.468;2022-12-18T05:10:33;34.17;;;18.70;;
11111;SDS011;5609;49.466;8.468;2022-12-18T05:13:00;27.93;;;19.53;;
11111;SDS011;5609;49.466;8.468;2022-12-18T05:15:29;33.50;;;22.33;;
11111;SDS011;5609;49.466;8.468;2022-12-18T05:17:56;32.37;;;21.43;;
11111;SDS011;5609;49.466;8.468;2022-12-18T05:20:24;34.73;;;21.50;;
11111;SDS011;5609;49.466;8.468;2022-12-18T05:22:51;36.00;;;22.30;;
11111;SDS011;5609;49.466;8.468;2022-12-18T05:25:18;35.57;;;21.90;;
11111;SDS011;5609;49.466;8.468;2022-12-18T05:27:45;39.70;;;23.37;;
11111;SDS011;5609;49.466;8.468;2022-12-18T05:30:12;35.23;;;22.70;;
11111;SDS011;5609;49.466;8.468;2022-12-18T05:32:41;38.47;;;23.30;;
11111;SDS011;5609;49.466;8.468;2022-12-18T05:35:09;47.40;;;24.10;;
11111;SDS011;5609;49.466;8.468;2022-12-18T05:37:37;47.40;;;24.70;;
11111;SDS011;5609;49.466;8.468;2022-12-18T05:40:04;41.00;;;24.20;;
11111;SDS011;5609;49.466;8.468;2022-12-18T05:42:31;34.13;;;22.07;;
11111;SDS011;5609;49.466;8.468;2022-12-18T05:44:58;37.30;;;20.83;;
11111;SDS011;5609;49.466;8.468;2022-12-18T05:47:26;39.70;;;23.67;;
11111;SDS011;5609;49.466;8.468;2022-12-18T05:49:54;35.97;;;21.70;;
11111;SDS011;5609;49.466;8.468;2022-12-18T05:52:21;37.77;;;22.30;;
11111;SDS011;5609;49.466;8.468;2022-12-18T05:54:48;31.03;;;20.10;;
11111;SDS011;5609;49.466;8.468;2022-12-18T05:57:15;36.47;;;21.80;;
11111;SDS011;5609;49.466;8.468;2022-12-18T05:59:41;33.97;;;20.03;;
11111;SDS011;5609;49.466;8.468;2022-12-18T06:02:08;34.87;;;20.47;;
11111;SDS011;5609;49.466;8.468;2022-12-18T06:04:35;33.40;;;20.53;;
11111;SDS011;5609;49.466;8.468;2022-12-18T06:07:06;31.67;;;20.33;;
11111;SDS011;5609;49.466;8.468;2022-12-18T06:09:33;34.20;;;19.43;;
11111;SDS011;5609;49.466;8.468;2022-12-18T06:12:00;33.60;;;20.63;;
11111;SDS011;5609;49.466;8.468;2022-12-18T06:14:26;31.90;;;20.50;;
11111;SDS011;5609;49.466;8.468;2022-12-18T06:16:53;33.10;;;20.27;;
11111;SDS011;5609;49.466;8.468;2022-12-18T06:19:21;30.10;;;18.87;;
11111;SDS011;5609;49.466;8.468;2022-12-18T06:21:48;31.00;;;20.20;;
11111;SDS011;5609;49.466;8.468;2022-12-18T06:24:16;33.27;;;21.83;;
11111;SDS011;5609;49.466;8.468;2022-12-18T06:26:43;37.17;;;21.60;;
11111;SDS011;5609;49.466;8.468;2022-12-18T06:29:10;26.37;;;18.63;;
11111;SDS011;5609;49.466;8.468;2022-12-18T06:31:36;32.10;;;19.80;;
11111;SDS011;5609;49.466;8.468;2022-12-18T06:34:03;29.67;;;19.00;;
11111;SDS011;5609;49.466;8.468;2022-12-18T06:36:30;29.90;;;19.13;;
11111;SDS011;5609;49.466;8.468;2022-12-18T06:38:57;28.17;;;17.67;;
11111;SDS011;5609;49.466;8.468;2022-12-18T06:41:26;33.30;;;21.50;;
11111;SDS011;5609;49.466;8.468;2022-12-18T06:43:52;30.00;;;19.80;;
11111;SDS011;5609;49.466;8.468;2022-12-18T06:46:19;30.97;;;19.80;;
11111;SDS011;5609;49.466;8.468;2022-12-18T06:48:47;32.80;;;21.20;;
11111;SDS011;5609;49.466;8.468;2022-12-18T06:51:15;36.87;;;22.93;;
11111;SDS011;5609;49.466;8.468;2022-12-18T06:53:43;34.27;;;21.10;;
11111;SDS011;5609;49.466;8.468;2022-12-18T06:56:10;33.50;;;21.43;;
11111;SDS011;5609;49.466;8.468;2022-12-18T06:58:38;34.93;;;21.50;;
11111;SDS011;5609;49.466;8.468;2022-12-18T07:01:05;37.20;;;21.73;;
11111;SDS011;5609;49.466;8.468;2022-12-18T07:03:35;35.03;;;21.87;;
11111;SDS011;5609;49.466;8.468;2022-12-18T07:06:02;34.17;;;19.53;;
11111;SDS011;5609;49.466;8.468;2022-12-18T07:08:29;36.77;;;21.83;;
11111;SDS011;5609;49.466;8.468;2022-12-18T07:10:56;38.27;;;22.83;;
11111;SDS011;5609;49.466;8.468;2022-12-18T07:13:23;33.80;;;19.17;;
11111;SDS011;5609;49.466;8.468;2022-12-18T07:15:51;35.20;;;20.67;;
11111;SDS011;5609;49.466;8.468;2022-12-18T07:18:18;32.20;;;19.70;;
11111;SDS011;5609;49.466;8.468;2022-12-18T07:20:45;31.77;;;20.10;;
11111;SDS011;5609;49.466;8.468;2022-12-18T07:23:12;32.27;;;20.20;;
11111;SDS011;5609;49.466;8.468;2022-12-18T07:25:38;37.50;;;21.73;;
11111;SDS011;5609;49.466;8.468;2022-12-18T07:28:05;33.53;;;21.50;;
11111;SDS011;5609;49.466;8.468;2022-12-18T07:30:32;35.93;;;20.60;;
11111;SDS011;5609;49.466;8.468;2022-12-18T07:33:00;34.70;;;21.30;;
11111;SDS011;5609;49.466;8.468;2022-12-18T07:35:27;35.47;;;20.50;;
11111;SDS011;5609;49.466;8.468;2022-12-18T07:37:54;36.90;;;23.03;;
11111;SDS011;5609;49.466;8.468;2022-12-18T07:40:20;35.23;;;22.47;;
11111;SDS011;5609;49.466;8.468;2022-12-18T07:42:47;34.37;;;20.90;;
11111;SDS011;5609;49.466;8.468;2022-12-18T07:45:14;38.97;;;23.23;;
11111;SDS011;5609;49.466;8.468;2022-12-18T07:47:40;36.00;;;21.57;;
11111;SDS011;5609;49.466;8.468;2022-12-18T07:50:09;35.33;;;21.00;;
11111;SDS011;5609;49.466;8.468;2022-12-18T07:52:35;29.10;;;19.03;;
11111;SDS011;5609;49.466;8.468;2022-12-18T07:55:02;35.57;;;22.20;;
11111;SDS011;5609;49.466;8.468;2022-12-18T07:57:29;34.40;;;21.63;;
11111;SDS011;5609;49.466;8.468;2022-12-18T07:59:56;33.27;;;20.90;;
11111;SDS011;5609;49.466;8.468;2022-12-18T08:02:23;30.53;;;20.53;;
11111;SDS011;5609;49.466;8.468;2022-12-18T08:04:50;28.87;;;18.80;;
11111;SDS011;5609;49.466;8.468;2022-12-18T08:07:18;29.23;;;19.70;;
11111;SDS011;5609;49.466;8.468;2022-12-18T08:09:44;30.03;;;19.83;;
11111;SDS011;5609;49.466;8.468;2022-12-18T08:12:11;32.77;;;21.23;;
11111;SDS011;5609;49.466;8.468;2022-12-18T08:14:38;27.93;;;18.53;;
11111;SDS011;5609;49.466;8.468;2022-12-18T08:17:04;31.83;;;21.17;;
11111;SDS011;5609;49.466;8.468;2022-12-18T08:19:31;35.43;;;21.73;;
11111;SDS011;5609;49.466;8.468;2022-12-18T08:21:58;33.07;;;20.03;;
11111;SDS011;5609;49.466;8.468;2022-12-18T08:24:26;35.07;;;21.67;;
11111;SDS011;5609;49.466;8.468;2022-12-18T08:26:53;30.47;;;19.50;;
11111;SDS011;5609;49.466;8.468;2022-12-18T08:29:22;32.63;;;21.53;;
11111;SDS011;5609;49.466;8.468;2022-12-18T08:31:48;32.83;;;21.17;;
11111;SDS011;5609;49.466;8.468;2022-12-18T08:34:15;35.87;;;20.90;;
11111;SDS011;5609;49.466;8.468;2022-12-18T08:36:42;30.40;;;19.70;;
11111;SDS011;5609;49.466;8.468;2022-12-18T08:39:09;33.83;;;22.27;;
11111;SDS011;5609;49.466;8.468;2022-12-18T08:41:37;34.43;;;21.53;;
11111;SDS011;5609;49.466;8.468;2022-12-18T08:44:04;29.53;;;19.67;;
11111;SDS011;5609;49.466;8.468;2022-12-18T08:46:48;38.00;;;22.80;;
11111;SDS011;5609;49.466;8.468;2022-12-18T08:49:14;26.30;;;17.13;;
11111;SDS011;5609;49.466;8.468;2022-12-18T08:51:41;36.07;;;22.37;;
11111;SDS011;5609;49.466;8.468;2022-12-18T08:54:09;32.07;;;20.10;;
11111;SDS011;5609;49.466;8.468;2022-12-18T08:56:38;29.80;;;19.70;;
11111;SDS011;5609;49.466;8.468;2022-12-18T08:59:05;32.73;;;21.30;;
11111;SDS011;5609;49.466;8.468;2022-12-18T09:01:32;31.20;;;19.07;;
11111;SDS011;5609;49.466;8.468;2022-12-18T09:03:59;32.67;;;19.57;;
11111;SDS011;5609;49.466;8.468;2022-12-18T09:06:25;31.00;;;19.67;;
11111;SDS011;5609;49.466;8.468;2022-12-18T09:08:52;35.10;;;20.07;;
11111;SDS011;5609;49.466;8.468;2022-12-18T09:11:20;32.83;;;22.40;;
11111;SDS011;5609;49.466;8.468;2022-12-18T09:13:49;33.87;;;22.27;;
11111;SDS011;5609;49.466;8.468;2022-12-18T09:16:17;33.17;;;22.37;;
11111;SDS011;5609;49.466;8.468;2022-12-18T09:18:44;34.43;;;22.70;;
11111;SDS011;5609;49.466;8.468;2022-12-18T09:21:12;33.37;;;22.33;;
11111;SDS011;5609;49.466;8.468;2022-12-18T09:23:40;32.20;;;22.03;;
11111;SDS011;5609;49.466;8.468;2022-12-18T09:26:07;31.90;;;22.17;;
11111;SDS011;5609;49.466;8.468;2022-12-18T09:28:34;33.13;;;22.33;;
11111;SDS011;5609;49.466;8.468;2022-12-18T09:31:05;34.00;;;22.40;;
11111;SDS011;5609;49.466;8.468;2022-12-18T09:33:33;34.33;;;23.00;;
11111;SDS011;5609;49.466;8.468;2022-12-18T09:36:01;30.43;;;22.00;;
11111;SDS011;5609;49.466;8.468;2022-12-18T09:38:29;34.47;;;22.73;;
11111;SDS011;5609;49.466;8.468;2022-12-18T09:40:57;34.83;;;23.53;;
11111;SDS011;5609;49.466;8.468;2022-12-18T09:43:29;34.17;;;22.77;;
11111;SDS011;5609;49.466;8.468;2022-12-18T09:46:02;34.80;;;23.03;;
11111;SDS011;5609;49.466;8.468;2022-12-18T09:48:34;34.37;;;23.10;;
11111;SDS011;5609;49.466;8.468;2022-12-18T09:51:06;33.83;;;22.07;;
11111;SDS011;5609;49.466;8.468;2022-12-18T09:53:41;33.70;;;22.83;;
11111;SDS011;5609;49.466;8.468;2022-12-18T09:56:12;34.67;;;23.40;;
11111;SDS011;5609;49.466;8.468;2022-12-18T09:58:44;37.50;;;22.70;;
11111;SDS011;5609;49.466;8.468;2022-12-18T10:01:15;32.60;;;22.83;;
11111;SDS011;5609;49.466;8.468;2022-12-18T10:03:46;35.20;;;22.57;;
11111;SDS011;5609;49.466;8.468;2022-12-18T10:06:14;34.00;;;22.77;;
11111;SDS011;5609;49.466;8.468;2022-12-18T10:08:46;34.33;;;22.77;;
11111;SDS011;5609;49.466;8.468;2022-12-18T10:11:21;36.27;;;21.87;;
11111;SDS011;5609;49.466;8.468;2022-12-18T10:14:00;34.20;;;21.73;;
11111;SDS011;5609;49.466;8.468;2022-12-18T10:16:34;33.00;;;22.00;;
11111;SDS011;5609;49.466;8.468;2022-12-18T10:19:16;32.00;;;20.93;;
11111;SDS011;5609;49.466;8.468;2022-12-18T10:21:51;33.43;;;21.03;;
11111;SDS011;5609;49.466;8.468;2022-12-18T10:24:26;30.53;;;21.27;;
11111;SDS011;5609;49.466;8.468;2022-12-18T10:27:04;34.13;;;22.57;;
11111;SDS011;5609;49.466;8.468;2022-12-18T10:29:40;33.30;;;21.73;;
11111;SDS011;5609;49.466;8.468;2022-12-18T10:32:10;34.27;;;21.80;;
11111;SDS011;5609;49.466;8.468;2022-12-18T10:34:41;32.73;;;21.97;;
11111;SDS011;5609;49.466;8.468;2022-12-18T10:37:11;30.80;;;21.57;;
11111;SDS011;5609;49.466;8.468;2022-12-18T10:39:43;31.90;;;21.90;;
11111;SDS011;5609;49.466;8.468;2022-12-18T10:42:10;29.00;;;20.57;;
11111;SDS011;5609;49.466;8.468;2022-12-18T10:44:43;29.60;;;20.97;;
11111;SDS011;5609;49.466;8.468;2022-12-18T10:47:12;32.20;;;21.73;;
11111;SDS011;5609;49.466;8.468;2022-12-18T10:49:42;31.90;;;21.10;;
11111;SDS011;5609;49.466;8.468;2022-12-18T10:52:15;29.70;;;21.13;;
11111;SDS011;5609;49.466;8.468;2022-12-18T10:54:48;31.13;;;22.17;;
11111;SDS011;5609;49.466;8.468;2022-12-18T10:57:28;31.90;;;21.23;;
11111;SDS011;5609;49.466;8.468;2022-12-18T10:59:58;30.20;;;20.67;;
11111;SDS011;5609;49.466;8.468;2022-12-18T11:02:33;29.43;;;21.67;;
11111;SDS011;5609;49.466;8.468;2022-12-18T11:05:01;32.90;;;21.97;;
11111;SDS011;5609;49.466;8.468;2022-12-18T11:07:40;31.10;;;21.27;;
11111;SDS011;5609;49.466;8.468;2022-12-18T11:10:15;28.37;;;20.67;;
11111;SDS011;5609;49.466;8.468;2022-12-18T11:12:43;29.53;;;21.23;;
11111;SDS011;5609;49.466;8.468;2022-12-18T11:15:13;30.60;;;21.13;;
11111;SDS011;5609;49.466;8.468;2022-12-18T11:17:44;27.83;;;20.40;;
11111;SDS011;5609;49.466;8.468;2022-12-18T11:20:30;30.47;;;22.23;;
11111;SDS011;5609;49.466;8.468;2022-12-18T11:22:59;29.37;;;21.47;;
11111;SDS011;5609;49.466;8.468;2022-12-18T11:25:27;31.63;;;21.97;;
11111;SDS011;5609;49.466;8.468;2022-12-18T11:27:55;30.77;;;21.77;;
11111;SDS011;5609;49.466;8.468;2022-12-18T11:30:24;28.87;;;21.33;;
11111;SDS011;5609;49.466;8.468;2022-12-18T11:32:55;30.97;;;20.93;;
11111;SDS011;5609;49.466;8.468;2022-12-18T11:35:27;30.93;;;21.77;;
11111;SDS011;5609;49.466;8.468;2022-12-18T11:38:02;32.97;;;21.23;;
11111;SDS011;5609;49.466;8.468;2022-12-18T11:40:37;33.23;;;21.33;;
11111;SDS011;5609;49.466;8.468;2022-12-18T11:43:07;29.97;;;20.57;;
11111;SDS011;5609;49.466;8.468;2022-12-18T11:45:40;29.03;;;20.90;;
11111;SDS011;5609;49.466;8.468;2022-12-18T11:48:14;28.30;;;19.90;;
11111;SDS011;5609;49.466;8.468;2022-12-18T11:50:46;26.73;;;19.03;;
11111;SDS011;5609;49.466;8.468;2022-12-18T11:53:16;29.53;;;21.00;;
11111;SDS011;5609;49.466;8.468;2022-12-18T11:55:48;29.00;;;20.07;;
11111;SDS011;5609;49.466;8.468;2022-12-18T11:58:21;28.27;;;19.80;;
11111;SDS011;5609;49.466;8.468;2022-12-18T12:00:59;26.83;;;19.20;;
11111;SDS011;5609;49.466;8.468;2022-12-18T12:03:47;26.93;;;18.80;;
11111;SDS011;5609;49.466;8.468;2022-12-18T12:06:35;26.07;;;18.73;;
11111;SDS011;5609;49.466;8.468;2022-12-18T12:09:13;27.17;;;18.80;;
11111;SDS011;5609;49.466;8.468;2022-12-18T12:11:47;28.03;;;19.40;;
11111;SDS011;5609;49.466;8.468;2022-12-18T12:14:26;23.37;;;17.47;;
11111;SDS011;5609;49.466;8.468;2022-12-18T12:17:04;25.80;;;18.90;;
11111;SDS011;5609;49.466;8.468;2022-12-18T12:19:41;27.30;;;18.87;;
11111;SDS011;5609;49.466;8.468;2022-12-18T12:22:18;30.60;;;19.67;;
11111;SDS011;5609;49.466;8.468;2022-12-18T12:25:01;27.33;;;18.97;;
11111;SDS011;5609;49.466;8.468;2022-12-18T12:27:46;28.83;;;19.07;;
11111;SDS011;5609;49.466;8.468;2022-12-18T12:30:22;27.97;;;18.60;;
11111;SDS011;5609;49.466;8.468;2022-12-18T12:33:00;28.10;;;18.57;;
11111;SDS011;5609;49.466;8.468;2022-12-18T12:35:40;26.17;;;18.27;;
11111;SDS011;5609;49.466;8.468;2022-12-18T12:38:16;29.67;;;19.60;;
11111;SDS011;5609;49.466;8.468;2022-12-18T12:40:48;27.50;;;19.30;;
11111;SDS011;5609;49.466;8.468;2022-12-18T12:43:21;24.83;;;18.30;;
11111;SDS011;5609;49.466;8.468;2022-12-18T12:45:52;27.57;;;19.03;;
11111;SDS011;5609;49.466;8.468;2022-12-18T12:48:33;27.60;;;19.20;;
11111;SDS011;5609;49.466;8.468;2022-12-18T12:51:09;25.50;;;18.03;;
11111;SDS011;5609;49.466;8.468;2022-12-18T12:53:40;27.43;;;18.13;;
11111;SDS011;5609;49.466;8.468;2022-12-18T12:56:08;27.77;;;19.43;;
11111;SDS011;5609;49.466;8.468;2022-12-18T12:58:41;30.17;;;20.60;;
11111;SDS011;5609;49.466;8.468;2022-12-18T13:01:22;30.00;;;19.70;;
11111;SDS011;5609;49.466;8.468;2022-12-18T13:03:56;29.70;;;20.23;;
11111;SDS011;5609;49.466;8.468;2022-12-18T13:06:33;27.97;;;20.00;;
11111;SDS011;5609;49.466;8.468;2022-12-18T13:09:06;34.57;;;22.43;;
11111;SDS011;5609;49.466;8.468;2022-12-18T13:11:36;38.20;;;25.60;;
11111;SDS011;5609;49.466;8.468;2022-12-18T13:14:23;37.57;;;26.20;;
11111;SDS011;5609;49.466;8.468;2022-12-18T13:19:40;42.37;;;27.77;;
11111;SDS011;5609;49.466;8.468;2022-12-18T13:22:20;40.70;;;28.10;;
11111;SDS011;5609;49.466;8.468;2022-12-18T13:24:48;42.90;;;28.73;;
11111;SDS011;5609;49.466;8.468;2022-12-18T13:36:16;39.97;;;26.53;;
11111;SDS011;5609;49.466;8.468;2022-12-18T13:41:47;41.33;;;28.03;;
11111;SDS011;5609;49.466;8.468;2022-12-18T13:44:22;44.60;;;27.50;;
11111;SDS011;5609;49.466;8.468;2022-12-18T13:46:54;43.57;;;28.43;;
11111;SDS011;5609;49.466;8.468;2022-12-18T13:49:22;43.80;;;28.47;;
11111;SDS011;5609;49.466;8.468;2022-12-18T13:51:51;42.50;;;27.53;;
11111;SDS011;5609;49.466;8.468;2022-12-18T13:54:22;39.57;;;26.70;;
11111;SDS011;5609;49.466;8.468;2022-12-18T13:56:54;39.70;;;27.00;;
11111;SDS011;5609;49.466;8.468;2022-12-18T13:59:21;39.70;;;26.53;;
11111;SDS011;5609;49.466;8.468;2022-12-18T14:01:50;39.10;;;26.47;;
11111;SDS011;5609;49.466;8.468;2022-12-18T14:04:20;39.13;;;26.30;;
11111;SDS011;5609;49.466;8.468;2022-12-18T14:06:51;39.07;;;25.60;;
11111;SDS011;5609;49.466;8.468;2022-12-18T14:09:23;36.93;;;25.43;;
11111;SDS011;5609;49.466;8.468;2022-12-18T14:11:52;37.57;;;24.07;;
11111;SDS011;5609;49.466;8.468;2022-12-18T14:14:42;33.63;;;22.40;;
11111;SDS011;5609;49.466;8.468;2022-12-18T14:17:12;31.60;;;21.03;;
11111;SDS011;5609;49.466;8.468;2022-12-18T14:19:41;29.60;;;20.10;;
11111;SDS011;5609;49.466;8.468;2022-12-18T14:22:13;27.63;;;19.20;;
11111;SDS011;5609;49.466;8.468;2022-12-18T14:24:44;29.47;;;19.77;;
11111;SDS011;5609;49.466;8.468;2022-12-18T14:27:21;27.10;;;18.43;;
11111;SDS011;5609;49.466;8.468;2022-12-18T14:29:49;32.93;;;19.80;;
11111;SDS011;5609;49.466;8.468;2022-12-18T14:32:17;29.93;;;20.37;;
11111;SDS011;5609;49.466;8.468;2022-12-18T14:34:45;29.40;;;19.53;;
11111;SDS011;5609;49.466;8.468;2022-12-18T14:37:13;29.30;;;20.00;;
11111;SDS011;5609;49.466;8.468;2022-12-18T14:39:53;26.87;;;18.77;;
11111;SDS011;5609;49.466;8.468;2022-12-18T14:42:21;29.33;;;19.23;;
11111;SDS011;5609;49.466;8.468;2022-12-18T14:44:48;29.73;;;19.83;;
11111;SDS011;5609;49.466;8.468;2022-12-18T14:47:15;31.57;;;20.60;;
11111;SDS011;5609;49.466;8.468;2022-12-18T14:49:42;31.17;;;20.03;;
11111;SDS011;5609;49.466;8.468;2022-12-18T14:52:16;29.97;;;20.00;;
11111;SDS011;5609;49.466;8.468;2022-12-18T14:54:48;30.33;;;20.47;;
11111;SDS011;5609;49.466;8.468;2022-12-18T14:57:18;28.07;;;19.57;;
11111;SDS011;5609;49.466;8.468;2022-12-18T14:59:48;28.07;;;18.83;;
11111;SDS011;5609;49.466;8.468;2022-12-18T15:02:15;28.33;;;19.73;;
11111;SDS011;5609;49.466;8.468;2022-12-18T15:04:47;29.70;;;19.80;;